createdAt,value
2022-12-08T00:02:01.274Z,18.00
2022-12-08T00:05:06.784Z,18.27
2022-12-08T00:08:11.867Z,16.03
2022-12-08T00:10:58.692Z,17.13
2022-12-08T00:13:45.367Z,16.87
2022-12-08T00:16:31.791Z,19.33
2022-12-08T00:19:18.125Z,20.80
2022-12-08T00:22:06.858Z,15.33
2022-12-08T00:24:53.191Z,13.47
2022-12-08T00:27:39.953Z,20.63
2022-12-08T00:30:26.213Z,23.23
2022-12-08T00:33:13.290Z,16.17
2022-12-08T00:36:05.840Z,16.10
2022-12-08T00:38:52.251Z,13.87
2022-12-08T00:41:57.256Z,14.40
2022-12-08T00:44:45.186Z,25.83
2022-12-08T00:47:31.419Z,15.60
2022-12-08T00:50:18.239Z,17.10
2022-12-08T00:53:04.555Z,12.90
2022-12-08T00:55:51.291Z,16.10
2022-12-08T00:58:39.439Z,16.67
2022-12-08T01:01:26.455Z,14.33
2022-12-08T01:04:16.151Z,14.70
2022-12-08T01:07:02.813Z,17.50
2022-12-08T01:09:49.234Z,16.43
2022-12-08T01:12:35.627Z,16.97
2022-12-08T01:15:22.160Z,13.53
2022-12-08T01:18:08.813Z,13.60
2022-12-08T01:20:54.974Z,18.80
2022-12-08T01:23:41.966Z,17.87
2022-12-08T01:26:28.224Z,18.20
2022-12-08T01:29:14.833Z,13.33
2022-12-08T01:32:01.336Z,13.57
2022-12-08T01:34:47.944Z,15.10
2022-12-08T01:37:34.246Z,19.37
2022-12-08T01:40:20.530Z,15.87
2022-12-08T01:43:14.264Z,14.17
2022-12-08T01:46:00.526Z,18.00
2022-12-08T01:48:47.010Z,14.03
2022-12-08T01:51:42.459Z,14.27
2022-12-08T01:54:33.486Z,11.87
2022-12-08T01:57:50.868Z,14.30
2022-12-08T02:00:37.252Z,13.03
2022-12-08T02:03:29.577Z,16.67
2022-12-08T02:06:17.119Z,13.80
2022-12-08T02:09:05.920Z,11.30
2022-12-08T02:11:56.369Z,14.23
2022-12-08T02:14:43.202Z,14.70
2022-12-08T02:17:47.434Z,13.70
2022-12-08T02:20:50.038Z,12.50
2022-12-08T02:24:02.206Z,12.80
2022-12-08T02:27:26.210Z,14.37
2022-12-08T02:30:20.158Z,13.57
2022-12-08T02:33:23.186Z,13.17
2022-12-08T02:36:44.188Z,12.70
2022-12-08T02:39:30.423Z,12.87
2022-12-08T02:42:16.699Z,12.73
2022-12-08T02:45:09.153Z,14.43
2022-12-08T02:47:57.884Z,13.40
2022-12-08T02:50:44.422Z,13.20
2022-12-08T02:53:33.805Z,16.83
2022-12-08T02:56:36.124Z,16.73
2022-12-08T02:59:47.515Z,16.33
2022-12-08T03:02:59.658Z,14.43
2022-12-08T03:05:52.147Z,14.87
2022-12-08T03:09:02.727Z,16.40
2022-12-08T03:12:06.272Z,13.97
2022-12-08T03:14:55.446Z,12.53
2022-12-08T03:17:49.041Z,14.67
2022-12-08T03:20:36.241Z,15.47
2022-12-08T03:23:24.613Z,15.67
2022-12-08T03:26:29.413Z,15.27
2022-12-08T03:29:16.476Z,15.10
2022-12-08T03:32:35.334Z,17.23
2022-12-08T03:35:29.516Z,14.33
2022-12-08T03:38:17.389Z,14.17
2022-12-08T03:41:19.039Z,16.37
2022-12-08T03:44:05.714Z,16.27
2022-12-08T03:46:52.067Z,19.97
2022-12-08T03:49:38.538Z,34.17
2022-12-08T03:52:25.138Z,17.93
2022-12-08T03:55:11.780Z,20.03
2022-12-08T03:57:58.284Z,11.23
2022-12-08T04:00:45.114Z,15.03
2022-12-08T04:03:31.395Z,14.33
2022-12-08T04:06:18.349Z,14.43
2022-12-08T04:09:04.761Z,17.73
2022-12-08T04:11:51.412Z,12.07
2022-12-08T04:14:37.506Z,13.03
2022-12-08T04:17:23.747Z,13.23
2022-12-08T04:20:10.928Z,13.90
2022-12-08T04:22:57.462Z,10.93
2022-12-08T04:25:44.426Z,12.40
2022-12-08T04:28:31.659Z,13.80
2022-12-08T04:31:18.318Z,13.27
2022-12-08T04:34:04.983Z,11.47
2022-12-08T04:36:51.709Z,12.60
2022-12-08T04:39:37.988Z,14.03
2022-12-08T04:42:24.218Z,14.07
2022-12-08T04:45:11.069Z,12.87
2022-12-08T04:47:58.930Z,13.40
2022-12-08T04:50:45.946Z,12.23
2022-12-08T04:53:32.739Z,14.07
2022-12-08T04:56:19.364Z,14.33
2022-12-08T04:59:05.719Z,16.60
2022-12-08T05:01:52.087Z,11.47
2022-12-08T05:04:38.797Z,11.97
2022-12-08T05:07:25.299Z,12.53
2022-12-08T05:10:11.623Z,15.50
2022-12-08T05:12:59.125Z,11.40
2022-12-08T05:15:45.493Z,14.10
2022-12-08T05:18:31.934Z,12.37
2022-12-08T05:21:18.548Z,12.83
2022-12-08T05:24:05.046Z,11.07
2022-12-08T05:26:51.576Z,12.13
2022-12-08T05:29:37.844Z,11.33
2022-12-08T05:32:23.995Z,12.03
2022-12-08T05:35:10.866Z,11.60
2022-12-08T05:37:57.356Z,12.00
2022-12-08T05:40:43.788Z,13.63
2022-12-08T05:43:30.107Z,13.27
2022-12-08T05:46:17.419Z,12.43
2022-12-08T05:49:04.011Z,10.70
2022-12-08T05:51:50.328Z,9.80
2022-12-08T05:54:36.586Z,11.87
2022-12-08T05:57:22.854Z,14.63
2022-12-08T06:00:09.425Z,11.93
2022-12-08T06:02:58.096Z,13.20
2022-12-08T06:05:46.663Z,13.40
2022-12-08T06:08:33.052Z,10.33
2022-12-08T06:11:22.814Z,12.03
2022-12-08T06:14:12.749Z,15.27
2022-12-08T06:16:59.151Z,11.00
2022-12-08T06:19:45.615Z,12.93
2022-12-08T06:22:32.060Z,10.83
2022-12-08T06:25:18.545Z,12.80
2022-12-08T06:28:07.019Z,12.30
2022-12-08T06:30:53.556Z,11.17
2022-12-08T06:33:49.178Z,17.37
2022-12-08T06:36:35.773Z,10.77
2022-12-08T06:39:22.370Z,14.33
2022-12-08T06:42:27.148Z,16.00
2022-12-08T06:45:18.141Z,15.53
2022-12-08T06:48:04.818Z,12.80
2022-12-08T06:50:51.115Z,14.47
2022-12-08T06:53:38.187Z,11.30
2022-12-08T06:56:27.913Z,11.87
2022-12-08T06:59:14.184Z,13.50
2022-12-08T07:02:00.997Z,12.73
2022-12-08T07:04:47.597Z,12.30
2022-12-08T07:07:34.031Z,14.47
2022-12-08T07:10:20.609Z,14.10
2022-12-08T07:13:06.985Z,16.00
2022-12-08T07:15:53.239Z,12.17
2022-12-08T07:18:39.846Z,14.80
2022-12-08T07:21:26.225Z,18.10
2022-12-08T07:24:12.432Z,13.17
2022-12-08T07:26:58.943Z,12.87
2022-12-08T07:29:45.460Z,12.80
2022-12-08T07:32:31.771Z,16.57
2022-12-08T07:35:18.210Z,15.23
2022-12-08T07:38:04.513Z,13.97
2022-12-08T07:40:51.663Z,16.37
2022-12-08T07:43:38.077Z,12.73
2022-12-08T07:46:25.835Z,11.07
2022-12-08T07:49:13.597Z,13.30
2022-12-08T07:51:59.957Z,11.03
2022-12-08T07:54:47.367Z,12.23
2022-12-08T07:57:33.892Z,9.10
2022-12-08T08:00:21.372Z,9.27
2022-12-08T08:03:11.168Z,10.10
2022-12-08T08:06:04.720Z,9.63
2022-12-08T08:08:51.053Z,9.80
2022-12-08T08:11:37.374Z,8.00
2022-12-08T08:14:23.922Z,8.67
2022-12-08T08:17:10.468Z,8.27
2022-12-08T08:19:56.937Z,10.43
2022-12-08T08:22:45.923Z,8.53
2022-12-08T08:25:32.122Z,5.77
2022-12-08T08:28:18.514Z,5.57
2022-12-08T08:31:05.634Z,7.03
2022-12-08T08:33:52.031Z,7.50
2022-12-08T08:36:39.576Z,9.23
2022-12-08T08:39:26.332Z,10.87
2022-12-08T08:42:12.634Z,9.47
2022-12-08T08:44:59.207Z,7.47
2022-12-08T08:47:45.648Z,7.80
2022-12-08T08:50:37.341Z,8.50
2022-12-08T08:53:24.900Z,10.40
2022-12-08T08:56:13.577Z,8.30
2022-12-08T08:59:00.027Z,7.63
2022-12-08T09:01:46.546Z,6.33
2022-12-08T09:04:33.141Z,9.67
2022-12-08T09:07:19.838Z,10.23
2022-12-08T09:10:06.850Z,9.10
2022-12-08T09:12:53.535Z,12.67
2022-12-08T09:15:40.073Z,10.83
2022-12-08T09:18:26.647Z,7.80
2022-12-08T09:21:16.420Z,8.00
2022-12-08T09:24:02.789Z,6.50
2022-12-08T09:26:49.843Z,10.23
2022-12-08T09:29:36.622Z,7.83
2022-12-08T09:32:22.912Z,9.70
2022-12-08T09:35:09.668Z,9.27
2022-12-08T09:37:55.910Z,6.00
2022-12-08T09:40:52.215Z,7.37
2022-12-08T09:44:00.368Z,7.10
2022-12-08T09:46:51.862Z,6.07
2022-12-08T09:49:42.346Z,5.67
2022-12-08T09:52:36.396Z,5.10
2022-12-08T09:55:34.123Z,5.90
2022-12-08T09:58:42.477Z,5.93
2022-12-08T10:01:33.104Z,5.70
2022-12-08T10:04:38.316Z,5.60
2022-12-08T10:08:00.030Z,6.67
2022-12-08T10:11:03.348Z,6.07
2022-12-08T10:13:55.653Z,7.67
2022-12-08T10:16:48.354Z,8.27
2022-12-08T10:19:35.406Z,6.47
2022-12-08T10:22:25.351Z,5.50
2022-12-08T10:25:21.995Z,10.87
2022-12-08T10:28:09.262Z,5.57
2022-12-08T10:30:55.749Z,5.77
2022-12-08T10:33:42.409Z,6.40
2022-12-08T10:36:48.162Z,4.77
2022-12-08T10:39:43.614Z,6.53
2022-12-08T10:42:37.474Z,5.27
2022-12-08T10:45:38.276Z,6.97
2022-12-08T10:48:29.566Z,8.07
2022-12-08T10:51:24.429Z,3.83
2022-12-08T10:54:28.057Z,5.63
2022-12-08T10:57:21.896Z,5.93
2022-12-08T11:00:14.590Z,5.07
2022-12-08T11:03:04.781Z,4.83
2022-12-08T11:05:56.408Z,4.13
2022-12-08T11:08:55.667Z,5.77
2022-12-08T11:11:51.836Z,5.80
2022-12-08T11:14:49.305Z,11.13
2022-12-08T11:17:40.359Z,5.27
2022-12-08T11:20:38.768Z,4.33
2022-12-08T11:23:27.131Z,5.20
2022-12-08T11:26:35.215Z,5.00
2022-12-08T11:29:22.068Z,4.73
2022-12-08T11:32:13.676Z,6.10
2022-12-08T11:35:04.387Z,4.17
2022-12-08T11:37:56.514Z,4.77
2022-12-08T11:41:00.541Z,4.83
2022-12-08T11:44:20.472Z,3.83
2022-12-08T11:47:12.808Z,4.63
2022-12-08T11:50:29.670Z,6.03
2022-12-08T11:53:37.553Z,4.47
2022-12-08T11:56:33.473Z,4.23
2022-12-08T11:59:24.933Z,4.60
2022-12-08T12:02:21.396Z,4.00
2022-12-08T12:05:39.842Z,2.53
2022-12-08T12:08:53.645Z,3.47
2022-12-08T12:12:19.226Z,4.03
2022-12-08T12:15:25.702Z,3.53
2022-12-08T12:18:27.084Z,4.13
2022-12-08T12:21:22.609Z,5.50
2022-12-08T12:24:25.163Z,4.27
2022-12-08T12:27:13.092Z,7.77
2022-12-08T12:30:07.024Z,7.87
2022-12-08T12:32:59.974Z,5.73
2022-12-08T12:35:48.237Z,4.83
2022-12-08T12:38:59.207Z,8.73
2022-12-08T12:41:53.090Z,6.73
2022-12-08T12:44:40.694Z,6.93
2022-12-08T12:47:48.612Z,6.93
2022-12-08T12:50:47.614Z,4.33
2022-12-08T12:53:36.923Z,4.03
2022-12-08T12:56:48.219Z,4.23
2022-12-08T12:59:55.163Z,6.77
2022-12-08T13:02:44.988Z,5.13
2022-12-08T13:05:45.540Z,5.33
2022-12-08T13:08:32.854Z,3.87
2022-12-08T13:11:19.649Z,8.23
2022-12-08T13:14:06.287Z,10.60
2022-12-08T13:16:56.109Z,5.73
2022-12-08T13:19:51.555Z,6.67
2022-12-08T13:23:00.963Z,5.27
2022-12-08T13:25:49.760Z,4.53
2022-12-08T13:28:58.620Z,5.90
2022-12-08T13:31:58.056Z,4.07
2022-12-08T13:34:59.061Z,4.77
2022-12-08T13:37:54.573Z,4.47
2022-12-08T13:40:43.118Z,3.07
2022-12-08T13:44:02.198Z,4.70
2022-12-08T13:47:17.226Z,5.00
2022-12-08T13:57:32.748Z,5.27
2022-12-08T14:00:21.726Z,3.97
2022-12-08T14:03:12.844Z,4.67
2022-12-08T14:06:12.306Z,4.80
2022-12-08T14:09:10.042Z,3.47
2022-12-08T14:12:20.332Z,4.40
2022-12-08T14:15:07.872Z,7.97
2022-12-08T14:17:56.943Z,5.40
2022-12-08T14:21:19.066Z,5.67
2022-12-08T14:23:49.506Z,4.27
2022-12-08T14:26:35.987Z,4.80
2022-12-08T14:29:45.112Z,5.13
2022-12-08T14:32:39.171Z,3.80
2022-12-08T14:35:37.018Z,5.23
2022-12-08T14:38:26.023Z,5.70
2022-12-08T14:41:12.521Z,6.37
2022-12-08T14:44:01.102Z,5.57
2022-12-08T14:47:08.593Z,4.43
2022-12-08T14:49:54.951Z,4.87
2022-12-08T14:52:44.386Z,4.20
2022-12-08T14:55:36.897Z,6.90
2022-12-08T14:58:29.399Z,5.33
2022-12-08T15:01:22.268Z,9.17
2022-12-08T15:04:18.711Z,9.47
2022-12-08T15:07:12.137Z,7.33
2022-12-08T15:10:16.244Z,14.53
2022-12-08T15:13:20.361Z,16.27
2022-12-08T15:16:45.678Z,16.30
2022-12-08T15:19:33.917Z,20.67
2022-12-08T15:22:22.741Z,12.20
2022-12-08T15:25:13.731Z,30.20
2022-12-08T15:28:02.855Z,13.03
2022-12-08T15:30:50.205Z,18.77
2022-12-08T15:33:37.261Z,7.87
2022-12-08T15:36:23.635Z,11.17
2022-12-08T15:39:18.366Z,24.70
2022-12-08T15:42:12.416Z,14.07
2022-12-08T15:44:59.096Z,12.90
2022-12-08T15:47:45.738Z,11.27
2022-12-08T15:50:32.195Z,17.10
2022-12-08T15:53:18.681Z,21.40
2022-12-08T15:59:18.102Z,23.27
2022-12-08T16:02:04.639Z,18.57
2022-12-08T16:07:58.030Z,24.07
2022-12-08T16:11:34.169Z,19.47
2022-12-08T16:14:15.555Z,11.60
2022-12-08T16:16:58.847Z,9.53
2022-12-08T16:19:45.800Z,12.27
2022-12-08T16:26:09.051Z,16.80
2022-12-08T16:28:53.926Z,15.63
2022-12-08T16:31:40.810Z,11.37
2022-12-08T16:34:27.261Z,13.87
2022-12-08T16:37:18.724Z,14.57
2022-12-08T16:40:05.747Z,30.37
2022-12-08T16:42:52.204Z,25.47
2022-12-08T16:45:44.994Z,38.37
2022-12-08T16:48:31.986Z,27.87
2022-12-08T16:51:26.458Z,28.70
2022-12-08T16:54:13.731Z,16.83
2022-12-08T16:56:59.837Z,12.90
2022-12-08T16:59:46.454Z,19.53
2022-12-08T17:02:32.919Z,14.07
2022-12-08T17:05:21.940Z,9.83
2022-12-08T17:08:08.522Z,10.47
2022-12-08T17:11:07.391Z,11.40
2022-12-08T17:13:53.948Z,18.23
2022-12-08T17:16:41.495Z,12.77
2022-12-08T17:19:28.068Z,12.97
2022-12-08T17:22:14.636Z,11.63
2022-12-08T17:25:02.340Z,17.80
2022-12-08T17:27:48.684Z,15.27
2022-12-08T17:30:34.985Z,9.67
2022-12-08T17:33:26.598Z,10.50
2022-12-08T17:36:16.663Z,8.87
2022-12-08T17:39:04.566Z,9.73
2022-12-08T17:41:51.035Z,12.13
2022-12-08T17:44:37.339Z,9.77
2022-12-08T17:47:23.845Z,10.40
2022-12-08T17:50:10.653Z,9.60
2022-12-08T17:52:56.833Z,13.00
2022-12-08T17:55:43.247Z,10.87
2022-12-08T17:58:29.568Z,11.27
2022-12-08T18:01:15.926Z,20.90
2022-12-08T18:04:03.589Z,13.87
2022-12-08T18:06:50.568Z,11.23
2022-12-08T18:09:37.130Z,9.50
2022-12-08T18:12:24.063Z,12.53
2022-12-08T18:15:15.528Z,16.67
2022-12-08T18:18:01.776Z,48.40
2022-12-08T18:20:48.807Z,73.53
2022-12-08T18:23:40.009Z,43.80
2022-12-08T18:26:26.355Z,28.97
2022-12-08T18:29:12.768Z,15.03
2022-12-08T18:31:58.906Z,17.80
2022-12-08T18:34:45.186Z,18.77
2022-12-08T18:37:32.149Z,15.47
2022-12-08T18:40:18.382Z,16.70
2022-12-08T18:43:04.614Z,18.00
2022-12-08T18:46:00.794Z,16.40
2022-12-08T18:48:48.956Z,17.33
2022-12-08T18:51:35.099Z,13.90
2022-12-08T18:54:27.711Z,18.20
2022-12-08T18:57:23.641Z,13.90
2022-12-08T19:00:14.530Z,15.23
2022-12-08T19:03:01.466Z,13.93
2022-12-08T19:05:47.902Z,18.20
2022-12-08T19:08:34.688Z,12.43
2022-12-08T19:11:26.428Z,15.83
2022-12-08T19:14:13.250Z,16.57
2022-12-08T19:17:00.114Z,14.63
2022-12-08T19:19:46.429Z,18.33
2022-12-08T19:22:32.553Z,16.30
2022-12-08T19:25:18.672Z,17.83
2022-12-08T19:28:05.372Z,14.03
2022-12-08T19:30:51.676Z,16.90
2022-12-08T19:33:38.832Z,11.60
2022-12-08T19:36:26.040Z,13.10
2022-12-08T19:39:36.704Z,15.07
2022-12-08T19:42:41.721Z,13.70
2022-12-08T19:45:28.138Z,14.90
2022-12-08T19:48:14.664Z,17.83
2022-12-08T19:51:01.271Z,21.07
2022-12-08T19:53:48.136Z,28.77
2022-12-08T19:56:34.721Z,42.53
2022-12-08T19:59:21.848Z,31.70
2022-12-08T20:02:08.084Z,22.83
2022-12-08T20:04:54.335Z,23.73
2022-12-08T20:07:41.303Z,17.93
2022-12-08T20:10:36.565Z,17.27
2022-12-08T20:13:40.916Z,18.17
2022-12-08T20:16:27.231Z,15.03
2022-12-08T20:19:13.478Z,18.60
2022-12-08T20:22:00.000Z,16.13
2022-12-08T20:24:51.914Z,16.57
2022-12-08T20:27:42.884Z,15.13
2022-12-08T20:30:29.224Z,14.90
2022-12-08T20:33:17.651Z,15.80
2022-12-08T20:36:07.384Z,15.87
2022-12-08T20:38:54.485Z,12.70
2022-12-08T20:41:42.627Z,19.93
2022-12-08T20:44:30.080Z,19.17
2022-12-08T20:47:16.506Z,15.07
2022-12-08T20:50:06.778Z,17.27
2022-12-08T20:52:53.750Z,16.33
2022-12-08T20:55:42.639Z,17.90
2022-12-08T20:58:29.251Z,16.60
2022-12-08T21:01:20.996Z,16.03
2022-12-08T21:04:11.796Z,19.50
2022-12-08T21:06:58.723Z,14.97
2022-12-08T21:09:45.370Z,17.43
2022-12-08T21:12:32.264Z,17.03
2022-12-08T21:15:18.906Z,14.40
2022-12-08T21:18:05.329Z,15.13
2022-12-08T21:20:52.879Z,19.27
2022-12-08T21:23:39.648Z,16.43
2022-12-08T21:26:26.447Z,20.77
2022-12-08T21:29:13.391Z,16.57
2022-12-08T21:32:00.805Z,16.17
2022-12-08T21:34:47.450Z,15.93
2022-12-08T21:37:34.036Z,19.03
2022-12-08T21:40:20.807Z,13.87
2022-12-08T21:43:08.081Z,13.87
2022-12-08T21:45:59.580Z,15.40
2022-12-08T21:48:46.577Z,12.23
2022-12-08T21:51:35.393Z,15.47
2022-12-08T21:54:22.419Z,17.60
2022-12-08T21:57:09.318Z,16.60
2022-12-08T21:59:56.253Z,15.80
2022-12-08T22:02:46.401Z,18.47
2022-12-08T22:05:35.211Z,17.70
2022-12-08T22:08:21.716Z,18.63
2022-12-08T22:11:08.489Z,20.03
2022-12-08T22:13:55.185Z,21.50
2022-12-08T22:16:41.671Z,17.27
2022-12-08T22:19:30.671Z,16.50
2022-12-08T22:22:16.949Z,18.17
2022-12-08T22:25:05.128Z,17.40
2022-12-08T22:27:51.672Z,16.40
2022-12-08T22:30:39.458Z,21.57
2022-12-08T22:33:28.056Z,18.30
2022-12-08T22:36:20.854Z,16.40
2022-12-08T22:39:07.041Z,14.87
2022-12-08T22:41:53.655Z,15.43
2022-12-08T22:44:40.109Z,18.07
2022-12-08T22:47:26.209Z,14.00
2022-12-08T22:50:12.992Z,10.73
2022-12-08T22:52:59.461Z,9.83
2022-12-08T22:55:46.380Z,14.47
2022-12-08T22:58:33.012Z,13.17
2022-12-08T23:01:25.583Z,13.27
2022-12-08T23:04:17.432Z,14.90
2022-12-08T23:07:04.623Z,14.83
2022-12-08T23:09:50.860Z,16.20
2022-12-08T23:12:37.477Z,17.70
2022-12-08T23:15:24.023Z,17.20
2022-12-08T23:18:16.242Z,13.10
2022-12-08T23:21:07.495Z,14.40
2022-12-08T23:23:54.168Z,18.67
2022-12-08T23:26:42.809Z,19.43
2022-12-08T23:29:29.192Z,13.90
2022-12-08T23:32:15.523Z,19.07
2022-12-08T23:35:02.631Z,20.70
2022-12-08T23:37:49.129Z,15.83
2022-12-08T23:40:35.679Z,15.50
2022-12-08T23:43:22.237Z,15.43
2022-12-08T23:46:09.152Z,16.10
2022-12-08T23:48:55.734Z,13.77
2022-12-08T23:51:42.387Z,17.23
2022-12-08T23:54:28.801Z,16.10
2022-12-08T23:57:15.364Z,15.80
